Alexandria, Pennsylvania
Current Conditions -  °F | °C
As of 4:53 AM on Sunday 21 Dec 2014 (Local Time) from KAOO Reporting Station
Haze Haze  
Wind Chill: 25°   Ceiling: 2600
Heat Index: 25°   Visibility: 6mi
Dew Point: 23°   Wind: 3mph
Humidity: 92%   Direction: 230°SW
Pressure: 30.24"   Gusts: NA
Location:  40.56°N, 78.1°W
Report Text: KAOO 210953Z AUTO 23003KT 6SM BR OVC026 M04/M05 A3024 RMK AO2 SLP259 T10391050
Loading
Personal Weather Stations






























Interactive Weather Map New forecast layout! Learn more

10-Day Weather Forecast

Advertisements
Track Severe Weather on mobile